Time;durP1;ratioP1;P1;durP2;ratioP2;P2;SDS_P1;SDS_P2;PMS_P1;PMS_P2;Temp;Humidity;BMP_temperature;BMP_pressure;BME280_temperature;BME280_humidity;BME280_pressure;Samples;Min_cycle;Max_cycle;Signal;HPM_P1;HPM_P2
2022/04/23 00:02:05;;;;;;;19.23;11.88;;;;;;;;;;4878124;29;20104;-78
2022/04/23 00:04:31;;;;;;;22.77;12.90;;;;;;;;;;4875428;29;20525;-76
2022/04/23 00:06:58;;;;;;;26.25;11.98;;;;;;;;;;4879810;29;20025;-77
2022/04/23 00:09:24;;;;;;;20.85;11.32;;;;;;;;;;4879734;29;20025;-77
2022/04/23 00:11:52;;;;;;;28.27;12.25;;;;;;;;;;4880986;29;20033;-77
2022/04/23 00:14:22;;;;;;;19.95;9.88;;;;;;;;;;4869622;29;20025;-77
2022/04/23 00:16:51;;;;;;;21.35;12.30;;;;;;;;;;4881120;29;20022;-76
2022/04/23 00:19:17;;;;;;;26.92;14.80;;;;;;;;;;4893429;29;20029;-75
2022/04/23 00:21:43;;;;;;;25.75;10.82;;;;;;;;;;4877936;29;20101;-76
2022/04/23 00:24:09;;;;;;;24.48;13.15;;;;;;;;;;4877673;29;20048;-77
2022/04/23 00:26:35;;;;;;;23.30;12.18;;;;;;;;;;4876665;29;20144;-77
2022/04/23 00:29:02;;;;;;;25.52;12.75;;;;;;;;;;4862346;29;20017;-80
2022/04/23 00:31:28;;;;;;;24.55;14.10;;;;;;;;;;4884272;29;20026;-76
2022/04/23 00:33:54;;;;;;;22.13;12.45;;;;;;;;;;4894903;29;20033;-76
2022/04/23 00:36:23;;;;;;;26.08;15.05;;;;;;;;;;4887832;29;20556;-78
2022/04/23 00:38:52;;;;;;;24.30;14.52;;;;;;;;;;4881114;29;20029;-78
2022/04/23 00:44:04;;;;;;;23.70;15.27;;;;;;;;;;4880257;29;20517;-78
2022/04/23 00:46:30;;;;;;;24.02;13.90;;;;;;;;;;4879368;29;20021;-75
2022/04/23 00:48:58;;;;;;;25.92;14.63;;;;;;;;;;4878649;29;20073;-78
2022/04/23 00:51:24;;;;;;;31.65;17.08;;;;;;;;;;4880542;29;20047;-77
2022/04/23 00:53:51;;;;;;;25.02;16.75;;;;;;;;;;4874755;29;20024;-78
2022/04/23 00:56:18;;;;;;;33.92;16.13;;;;;;;;;;4889407;29;20434;-77
2022/04/23 00:58:44;;;;;;;30.25;16.92;;;;;;;;;;4875283;29;20021;-77
2022/04/23 01:01:10;;;;;;;22.23;14.98;;;;;;;;;;4871969;29;20036;-77
2022/04/23 01:03:36;;;;;;;28.88;18.70;;;;;;;;;;4871671;29;20053;-77
2022/04/23 01:06:03;;;;;;;25.35;15.07;;;;;;;;;;4879066;29;20048;-77
2022/04/23 01:08:31;;;;;;;32.85;15.40;;;;;;;;;;4872928;29;20028;-78
2022/04/23 01:10:57;;;;;;;22.02;14.10;;;;;;;;;;4894127;29;20109;-78
2022/04/23 01:13:25;;;;;;;33.88;14.77;;;;;;;;;;4879743;29;20021;-78
2022/04/23 01:15:58;;;;;;;23.83;14.38;;;;;;;;;;4879452;29;20060;-78
2022/04/23 01:18:24;;;;;;;31.90;18.65;;;;;;;;;;4893922;29;20021;-79
2022/04/23 01:20:51;;;;;;;31.77;17.05;;;;;;;;;;4878743;29;20029;-76
2022/04/23 01:23:17;;;;;;;29.73;15.95;;;;;;;;;;4875551;29;20029;-76
2022/04/23 01:25:43;;;;;;;29.40;17.83;;;;;;;;;;4891664;29;20036;-78
2022/04/23 01:28:10;;;;;;;34.63;22.98;;;;;;;;;;4878594;29;20025;-77
2022/04/23 01:30:36;;;;;;;38.70;22.02;;;;;;;;;;4878602;29;20062;-76
2022/04/23 01:33:02;;;;;;;38.20;23.23;;;;;;;;;;4879646;29;20025;-75
2022/04/23 01:35:29;;;;;;;38.83;23.90;;;;;;;;;;4878303;29;20157;-76
2022/04/23 01:37:55;;;;;;;33.80;20.98;;;;;;;;;;4885901;29;20024;-78
2022/04/23 01:40:21;;;;;;;37.75;22.58;;;;;;;;;;4874911;29;20068;-79
2022/04/23 01:42:47;;;;;;;41.10;23.73;;;;;;;;;;4884249;29;20414;-77
2022/04/23 01:45:14;;;;;;;31.67;23.05;;;;;;;;;;4879105;29;20551;-78
2022/04/23 01:47:40;;;;;;;43.17;20.65;;;;;;;;;;4875357;29;20045;-78
2022/04/23 01:50:07;;;;;;;29.33;20.27;;;;;;;;;;4878060;29;20104;-78
2022/04/23 01:52:34;;;;;;;35.83;19.73;;;;;;;;;;4874509;29;20481;-77
2022/04/23 01:55:00;;;;;;;28.58;19.48;;;;;;;;;;4874864;29;20026;-77
2022/04/23 01:57:26;;;;;;;39.97;20.08;;;;;;;;;;4874172;29;20031;-76
2022/04/23 01:59:52;;;;;;;31.33;19.30;;;;;;;;;;4879250;29;20018;-77
2022/04/23 02:02:18;;;;;;;33.13;19.58;;;;;;;;;;4873869;29;20077;-77
2022/04/23 02:04:44;;;;;;;26.20;20.05;;;;;;;;;;4883287;29;20037;-77
2022/04/23 02:07:10;;;;;;;31.42;19.75;;;;;;;;;;4878745;29;20395;-78
2022/04/23 02:09:36;;;;;;;30.63;18.55;;;;;;;;;;4874559;29;20030;-76
2022/04/23 02:12:02;;;;;;;28.52;18.20;;;;;;;;;;4890147;29;20037;-76
2022/04/23 02:14:28;;;;;;;24.95;16.88;;;;;;;;;;4865823;29;20029;-78
2022/04/23 02:16:54;;;;;;;32.15;18.33;;;;;;;;;;4877589;29;20184;-79
2022/04/23 02:19:22;;;;;;;30.55;17.52;;;;;;;;;;4873528;29;20093;-77
2022/04/23 02:21:48;;;;;;;35.28;18.40;;;;;;;;;;4891449;29;20108;-78
2022/04/23 02:24:15;;;;;;;25.60;16.65;;;;;;;;;;4874734;29;20034;-78
2022/04/23 02:26:41;;;;;;;24.05;17.45;;;;;;;;;;4882734;29;20081;-78
2022/04/23 02:29:07;;;;;;;29.02;17.65;;;;;;;;;;4874897;29;20477;-78
2022/04/23 02:31:34;;;;;;;30.77;17.15;;;;;;;;;;4890225;29;20045;-78
2022/04/23 02:34:00;;;;;;;30.02;18.02;;;;;;;;;;4879285;29;20045;-77
2022/04/23 02:36:26;;;;;;;27.17;16.75;;;;;;;;;;4880011;29;20450;-77
2022/04/23 02:38:52;;;;;;;30.27;16.92;;;;;;;;;;4879626;29;20025;-76
2022/04/23 02:41:18;;;;;;;26.48;16.38;;;;;;;;;;4882757;29;20053;-78
2022/04/23 02:43:45;;;;;;;27.70;16.05;;;;;;;;;;4879244;29;20041;-78
2022/04/23 02:46:15;;;;;;;40.17;22.27;;;;;;;;;;4864399;29;20033;-77
2022/04/23 02:48:41;;;;;;;34.35;18.77;;;;;;;;;;4877468;29;20545;-77
2022/04/23 02:51:07;;;;;;;38.90;24.67;;;;;;;;;;4877428;29;20025;-77
2022/04/23 02:53:34;;;;;;;37.90;18.85;;;;;;;;;;4877376;29;20021;-78
2022/04/23 02:56:02;;;;;;;31.00;16.75;;;;;;;;;;4878248;29;20025;-78
2022/04/23 02:58:28;;;;;;;27.77;16.83;;;;;;;;;;4877268;29;20029;-77
2022/04/23 03:00:54;;;;;;;28.25;16.55;;;;;;;;;;4878636;29;20061;-77
2022/04/23 03:03:21;;;;;;;23.13;13.30;;;;;;;;;;4878452;29;20017;-77
2022/04/23 03:05:47;;;;;;;24.48;13.88;;;;;;;;;;4874003;29;20033;-77
2022/04/23 03:08:14;;;;;;;25.40;12.38;;;;;;;;;;4874058;29;21287;-78
2022/04/23 03:10:41;;;;;;;25.95;12.95;;;;;;;;;;4860015;29;20032;-77
2022/04/23 03:13:10;;;;;;;23.48;10.82;;;;;;;;;;4859469;29;20022;-79
2022/04/23 03:15:36;;;;;;;21.55;12.35;;;;;;;;;;4889267;29;20487;-79
2022/04/23 03:18:08;;;;;;;23.73;13.07;;;;;;;;;;4878389;29;20033;-78
2022/04/23 03:20:34;;;;;;;23.75;13.05;;;;;;;;;;4877070;29;20081;-77
2022/04/23 03:23:00;;;;;;;24.33;14.95;;;;;;;;;;4876940;29;20031;-78
2022/04/23 03:25:27;;;;;;;26.13;16.00;;;;;;;;;;4876863;29;20047;-78
2022/04/23 03:27:53;;;;;;;29.60;16.60;;;;;;;;;;4876650;29;20029;-78
2022/04/23 03:30:20;;;;;;;25.92;16.02;;;;;;;;;;4878191;29;20477;-77
2022/04/23 03:32:47;;;;;;;31.33;14.50;;;;;;;;;;4876857;29;20026;-78
2022/04/23 03:35:13;;;;;;;25.65;15.65;;;;;;;;;;4878226;29;20504;-79
2022/04/23 03:37:39;;;;;;;23.42;15.70;;;;;;;;;;4877863;29;20025;-78
2022/04/23 03:40:06;;;;;;;27.50;15.02;;;;;;;;;;4878139;29;20080;-78
2022/04/23 03:42:32;;;;;;;18.98;15.10;;;;;;;;;;4882695;29;20552;-78
2022/04/23 03:44:58;;;;;;;19.77;12.35;;;;;;;;;;4876736;29;20052;-78
2022/04/23 03:47:24;;;;;;;21.73;13.40;;;;;;;;;;4877870;29;20107;-78
2022/04/23 03:49:50;;;;;;;26.27;14.75;;;;;;;;;;4860740;29;20034;-77
2022/04/23 03:52:16;;;;;;;23.13;15.50;;;;;;;;;;4864055;29;20026;-80
2022/04/23 03:54:42;;;;;;;26.13;15.73;;;;;;;;;;4877565;29;20377;-76
2022/04/23 03:57:08;;;;;;;24.05;17.15;;;;;;;;;;4877636;29;20525;-78
2022/04/23 03:59:37;;;;;;;24.10;15.48;;;;;;;;;;4877926;29;20485;-78
2022/04/23 04:02:04;;;;;;;20.30;12.15;;;;;;;;;;4857920;29;20074;-79
2022/04/23 04:04:31;;;;;;;25.88;13.68;;;;;;;;;;4857968;29;20034;-78
2022/04/23 04:06:58;;;;;;;29.25;18.60;;;;;;;;;;4865099;29;20037;-76
2022/04/23 04:09:24;;;;;;;27.55;17.20;;;;;;;;;;4873188;29;20054;-77
2022/04/23 04:12:02;;;;;;;30.52;18.33;;;;;;;;;;4876046;29;20073;-78
2022/04/23 04:14:30;;;;;;;20.23;13.98;;;;;;;;;;4876333;29;20021;-77
2022/04/23 04:16:56;;;;;;;22.50;12.57;;;;;;;;;;4876357;29;20077;-78
2022/04/23 04:19:22;;;;;;;20.33;12.88;;;;;;;;;;4873336;29;20405;-78
2022/04/23 04:21:48;;;;;;;17.88;12.00;;;;;;;;;;4860730;29;20026;-78
2022/04/23 04:24:16;;;;;;;23.52;15.57;;;;;;;;;;4877077;29;20033;-79
2022/04/23 04:26:43;;;;;;;23.45;13.75;;;;;;;;;;4876655;29;20378;-78
2022/04/23 04:29:09;;;;;;;22.00;14.95;;;;;;;;;;4874111;29;20029;-78
2022/04/23 04:31:51;;;;;;;28.80;14.20;;;;;;;;;;4880928;29;20029;-77
2022/04/23 04:34:24;;;;;;;21.83;14.98;;;;;;;;;;4875590;29;20076;-79
2022/04/23 04:36:51;;;;;;;20.90;13.70;;;;;;;;;;4862248;29;20026;-77
2022/04/23 04:39:18;;;;;;;20.90;12.18;;;;;;;;;;4861911;29;20033;-78
2022/04/23 04:41:46;;;;;;;22.50;14.23;;;;;;;;;;4876790;29;20509;-77
2022/04/23 04:44:12;;;;;;;25.50;15.98;;;;;;;;;;4881539;29;20066;-78
2022/04/23 04:46:38;;;;;;;20.35;13.45;;;;;;;;;;4880819;29;20077;-76
2022/04/23 04:49:05;;;;;;;21.30;13.07;;;;;;;;;;4869496;29;20029;-78
2022/04/23 04:51:31;;;;;;;21.35;12.55;;;;;;;;;;4860770;29;20029;-79
2022/04/23 04:53:57;;;;;;;14.93;10.32;;;;;;;;;;4860776;29;20064;-78
2022/04/23 04:56:24;;;;;;;16.30;11.95;;;;;;;;;;4867794;29;20029;-78
2022/04/23 04:58:50;;;;;;;24.90;13.57;;;;;;;;;;4870978;29;20032;-77
2022/04/23 05:01:16;;;;;;;22.85;13.82;;;;;;;;;;4873233;29;20393;-77
2022/04/23 05:03:43;;;;;;;15.55;12.20;;;;;;;;;;4863936;29;20025;-80
2022/04/23 05:06:09;;;;;;;24.42;13.80;;;;;;;;;;4865590;29;20108;-78
2022/04/23 05:08:36;;;;;;;21.00;13.98;;;;;;;;;;4871502;29;20117;-78
2022/04/23 05:11:02;;;;;;;21.15;14.38;;;;;;;;;;4872626;29;20025;-77
2022/04/23 05:13:28;;;;;;;29.00;17.70;;;;;;;;;;4868174;29;20116;-77
2022/04/23 05:15:55;;;;;;;21.50;15.52;;;;;;;;;;4878761;29;20025;-79
2022/04/23 05:18:21;;;;;;;20.58;13.57;;;;;;;;;;4879088;29;20545;-77
2022/04/23 05:20:47;;;;;;;22.42;16.13;;;;;;;;;;4879672;29;20537;-77
2022/04/23 05:23:13;;;;;;;30.92;18.63;;;;;;;;;;4879907;29;20036;-78
2022/04/23 05:25:39;;;;;;;25.63;16.60;;;;;;;;;;4879687;29;20037;-77
2022/04/23 05:28:06;;;;;;;39.92;26.75;;;;;;;;;;4875363;29;20033;-77
2022/04/23 05:30:32;;;;;;;23.90;17.13;;;;;;;;;;4882247;29;20025;-76
2022/04/23 05:32:58;;;;;;;22.45;17.75;;;;;;;;;;4875163;29;20026;-78
2022/04/23 05:35:24;;;;;;;26.05;19.00;;;;;;;;;;4888767;29;20025;-77
2022/04/23 05:37:50;;;;;;;27.52;19.25;;;;;;;;;;4879196;29;20040;-79
2022/04/23 05:40:16;;;;;;;22.23;14.98;;;;;;;;;;4875038;29;20057;-77
2022/04/23 05:42:42;;;;;;;26.90;14.82;;;;;;;;;;4869040;29;20052;-77
2022/04/23 05:45:08;;;;;;;30.75;19.20;;;;;;;;;;4879123;29;20073;-76
2022/04/23 05:47:34;;;;;;;33.75;20.25;;;;;;;;;;4883630;29;20025;-76
2022/04/23 05:50:00;;;;;;;23.45;13.25;;;;;;;;;;4879374;29;20032;-78
2022/04/23 05:52:26;;;;;;;20.88;13.23;;;;;;;;;;4874944;29;20105;-78
2022/04/23 05:54:53;;;;;;;24.13;15.27;;;;;;;;;;4870070;29;20029;-79
2022/04/23 05:57:19;;;;;;;16.88;11.57;;;;;;;;;;4874833;29;20029;-77
2022/04/23 05:59:45;;;;;;;21.60;12.27;;;;;;;;;;4891217;29;20027;-78
2022/04/23 06:02:13;;;;;;;15.77;10.45;;;;;;;;;;4874816;29;20022;-76
2022/04/23 06:04:39;;;;;;;18.15;11.55;;;;;;;;;;4882628;29;20041;-77
2022/04/23 06:07:05;;;;;;;25.15;13.35;;;;;;;;;;4879065;29;20489;-77
2022/04/23 06:09:31;;;;;;;25.80;15.82;;;;;;;;;;4878752;29;20477;-77
2022/04/23 06:11:57;;;;;;;30.05;19.02;;;;;;;;;;4878498;29;20035;-79
2022/04/23 06:14:23;;;;;;;26.10;16.00;;;;;;;;;;4878878;29;20104;-76
2022/04/23 06:16:49;;;;;;;25.00;16.85;;;;;;;;;;4873489;29;20042;-78
2022/04/23 06:19:15;;;;;;;18.65;12.85;;;;;;;;;;4885496;29;20028;-78
2022/04/23 06:21:41;;;;;;;10.05;5.53;;;;;;;;;;4877383;29;20025;-78
2022/04/23 06:24:07;;;;;;;13.63;6.95;;;;;;;;;;4876704;29;20361;-79
2022/04/23 06:26:33;;;;;;;20.52;10.00;;;;;;;;;;4876746;29;20358;-76
2022/04/23 06:28:59;;;;;;;21.17;10.10;;;;;;;;;;4891195;29;20025;-78
2022/04/23 06:31:25;;;;;;;14.20;9.52;;;;;;;;;;4877348;29;20099;-78
2022/04/23 06:33:51;;;;;;;18.73;9.70;;;;;;;;;;4893266;29;20024;-79
2022/04/23 06:36:17;;;;;;;19.60;9.55;;;;;;;;;;4876007;29;20028;-79
2022/04/23 06:38:44;;;;;;;25.45;14.00;;;;;;;;;;4892549;29;20029;-80
2022/04/23 06:41:10;;;;;;;17.80;11.63;;;;;;;;;;4892480;29;20131;-76
2022/04/23 06:43:36;;;;;;;21.63;12.25;;;;;;;;;;4878838;29;20036;-77
2022/04/23 06:46:02;;;;;;;16.95;10.48;;;;;;;;;;4878294;29;20057;-79
2022/04/23 06:48:28;;;;;;;16.38;10.60;;;;;;;;;;4873769;29;20116;-78
2022/04/23 06:50:54;;;;;;;15.73;11.05;;;;;;;;;;4886740;29;20029;-77
2022/04/23 06:53:20;;;;;;;24.27;11.45;;;;;;;;;;4878369;29;20168;-77
2022/04/23 06:55:46;;;;;;;15.02;7.65;;;;;;;;;;4878359;29;20121;-76
2022/04/23 06:58:12;;;;;;;9.63;6.93;;;;;;;;;;4878593;29;20053;-77
2022/04/23 07:00:41;;;;;;;10.73;6.70;;;;;;;;;;4878410;29;20030;-78
2022/04/23 07:03:07;;;;;;;9.45;6.78;;;;;;;;;;4874314;29;20029;-78
2022/04/23 07:05:33;;;;;;;14.98;8.02;;;;;;;;;;4888795;29;20045;-79
2022/04/23 07:08:01;;;;;;;19.40;9.45;;;;;;;;;;4876942;29;20469;-78
2022/04/23 07:10:28;;;;;;;11.55;7.70;;;;;;;;;;4878113;29;20028;-78
2022/04/23 07:12:55;;;;;;;17.88;7.80;;;;;;;;;;4868835;29;20401;-78
2022/04/23 07:15:22;;;;;;;28.15;9.25;;;;;;;;;;4875129;29;20052;-79
2022/04/23 07:17:48;;;;;;;24.88;9.63;;;;;;;;;;4878799;29;20157;-78
2022/04/23 07:20:16;;;;;;;35.15;10.73;;;;;;;;;;4878119;29;20044;-79
2022/04/23 07:24:02;;;;;;;16.50;9.38;;;;;;;;;;4876901;29;20059;-80
2022/04/23 07:25:28;;;;;;;32.40;11.23;;;;;;;;;;4876329;29;20069;-78
2022/04/23 07:27:54;;;;;;;14.43;8.85;;;;;;;;;;4892404;29;20029;-78
2022/04/23 07:30:21;;;;;;;12.38;7.55;;;;;;;;;;4877945;29;20025;-81
2022/04/23 07:32:47;;;;;;;17.98;7.55;;;;;;;;;;4877976;29;20021;-78
2022/04/23 07:37:57;;;;;;;22.42;10.13;;;;;;;;;;4878789;29;20508;-80
2022/04/23 07:40:23;;;;;;;15.50;8.40;;;;;;;;;;4891981;29;20052;-79
2022/04/23 07:42:49;;;;;;;11.05;6.68;;;;;;;;;;4879128;29;20026;-80
2022/04/23 07:45:15;;;;;;;18.25;7.85;;;;;;;;;;4878307;29;20048;-80
2022/04/23 07:47:41;;;;;;;23.60;6.40;;;;;;;;;;4876711;29;20030;-79
2022/04/23 07:50:08;;;;;;;14.18;7.15;;;;;;;;;;4874370;29;20037;-83
2022/04/23 07:52:35;;;;;;;23.83;7.95;;;;;;;;;;4886463;29;20029;-81
2022/04/23 07:55:01;;;;;;;8.57;6.10;;;;;;;;;;4873731;29;20062;-78
2022/04/23 07:57:27;;;;;;;17.13;8.75;;;;;;;;;;4873346;29;20389;-79
2022/04/23 07:59:53;;;;;;;15.88;7.60;;;;;;;;;;4894710;29;20031;-80
2022/04/23 08:02:20;;;;;;;21.40;7.47;;;;;;;;;;4879282;29;20132;-78
2022/04/23 08:04:47;;;;;;;15.40;7.10;;;;;;;;;;4875405;29;20519;-80
2022/04/23 08:07:13;;;;;;;12.10;7.13;;;;;;;;;;4880806;29;20135;-79
2022/04/23 08:09:39;;;;;;;11.77;5.30;;;;;;;;;;4897824;29;20028;-78
2022/04/23 08:12:06;;;;;;;6.68;2.30;;;;;;;;;;4882681;29;20045;-78
2022/04/23 08:14:32;;;;;;;10.05;2.38;;;;;;;;;;4881896;29;20477;-80
2022/04/23 08:16:59;;;;;;;9.82;3.45;;;;;;;;;;4881300;29;20025;-78
2022/04/23 08:19:25;;;;;;;8.63;2.67;;;;;;;;;;4881743;29;20029;-78
2022/04/23 08:21:51;;;;;;;8.20;4.22;;;;;;;;;;4881588;29;20025;-77
2022/04/23 08:24:19;;;;;;;5.53;2.95;;;;;;;;;;4881534;29;20029;-79
2022/04/23 08:26:45;;;;;;;6.80;3.65;;;;;;;;;;4880158;29;20075;-78
2022/04/23 08:31:56;;;;;;;9.15;3.33;;;;;;;;;;4879155;29;20477;-80
2022/04/23 08:34:22;;;;;;;7.45;2.13;;;;;;;;;;4877041;29;20474;-80
2022/04/23 08:36:50;;;;;;;6.15;3.45;;;;;;;;;;4886923;29;20029;-81
2022/04/23 08:39:16;;;;;;;9.18;2.67;;;;;;;;;;4874877;29;20052;-80
2022/04/23 08:41:45;;;;;;;5.93;2.13;;;;;;;;;;4892587;29;20060;-81
2022/04/23 08:44:11;;;;;;;6.40;2.80;;;;;;;;;;4881482;29;20017;-80
2022/04/23 08:46:40;;;;;;;6.10;2.50;;;;;;;;;;4879660;29;20033;-79
2022/04/23 08:49:11;;;;;;;7.00;2.58;;;;;;;;;;4878665;29;20077;-80
2022/04/23 08:51:38;;;;;;;9.10;3.10;;;;;;;;;;4894685;29;20100;-79
2022/04/23 08:54:11;;;;;;;7.50;3.10;;;;;;;;;;4886275;29;20029;-80
2022/04/23 08:56:38;;;;;;;7.10;2.22;;;;;;;;;;4879773;29;20540;-78
2022/04/23 08:59:06;;;;;;;9.18;3.97;;;;;;;;;;4879826;29;20100;-78
2022/04/23 09:01:32;;;;;;;7.53;4.28;;;;;;;;;;4891863;29;20021;-78
2022/04/23 09:03:58;;;;;;;5.45;2.55;;;;;;;;;;4894261;29;20036;-80
2022/04/23 09:06:27;;;;;;;14.57;3.42;;;;;;;;;;4892362;29;20131;-82
2022/04/23 09:09:11;;;;;;;6.50;2.67;;;;;;;;;;4873490;29;20021;-79
2022/04/23 09:11:39;;;;;;;9.00;3.08;;;;;;;;;;4877789;29;20032;-78
2022/04/23 09:14:06;;;;;;;4.50;1.83;;;;;;;;;;4877280;29;20184;-78
2022/04/23 09:25:10;;;;;;;7.50;3.05;;;;;;;;;;4880017;29;20077;-78
2022/04/23 09:27:43;;;;;;;5.93;2.38;;;;;;;;;;4875914;29;20460;-78
2022/04/23 09:30:13;;;;;;;7.88;2.88;;;;;;;;;;4878961;29;20063;-79
2022/04/23 09:32:56;;;;;;;5.05;1.73;;;;;;;;;;4878225;29;20045;-77
2022/04/23 09:35:22;;;;;;;4.50;2.30;;;;;;;;;;4878451;29;20495;-78
2022/04/23 09:40:33;;;;;;;11.05;6.47;;;;;;;;;;4876963;29;20113;-78
2022/04/23 09:43:09;;;;;;;3.88;1.63;;;;;;;;;;4878982;29;20032;-77
2022/04/23 09:45:41;;;;;;;7.22;2.30;;;;;;;;;;4891898;29;20037;-78
2022/04/23 09:48:16;;;;;;;9.70;2.53;;;;;;;;;;4875438;29;20450;-78
2022/04/23 09:50:46;;;;;;;5.57;2.92;;;;;;;;;;4893154;29;20025;-78
2022/04/23 09:53:16;;;;;;;7.63;4.68;;;;;;;;;;4872041;29;20402;-78
2022/04/23 09:55:43;;;;;;;8.45;3.70;;;;;;;;;;4877390;29;20033;-77
2022/04/23 09:58:10;;;;;;;19.00;12.70;;;;;;;;;;4876617;29;20594;-78
2022/04/23 10:00:37;;;;;;;5.80;1.85;;;;;;;;;;4876065;29;20104;-80
2022/04/23 10:03:06;;;;;;;6.93;2.25;;;;;;;;;;4886477;29;20375;-77
2022/04/23 10:05:36;;;;;;;8.10;4.97;;;;;;;;;;4867944;29;20128;-79
2022/04/23 10:08:03;;;;;;;5.13;2.47;;;;;;;;;;4885955;29;20025;-79
2022/04/23 10:10:32;;;;;;;5.50;1.63;;;;;;;;;;4869995;29;20049;-77
2022/04/23 10:12:58;;;;;;;3.63;1.80;;;;;;;;;;4885815;29;20035;-79
2022/04/23 10:15:25;;;;;;;4.28;2.03;;;;;;;;;;4868108;29;20048;-80
2022/04/23 10:17:51;;;;;;;3.85;2.53;;;;;;;;;;4870995;29;20025;-80
2022/04/23 10:20:17;;;;;;;4.00;1.88;;;;;;;;;;4869476;29;20028;-79
2022/04/23 10:22:46;;;;;;;5.68;1.35;;;;;;;;;;4881076;29;20037;-79
2022/04/23 10:25:31;;;;;;;3.17;1.67;;;;;;;;;;4885391;29;20052;-80
2022/04/23 10:27:58;;;;;;;6.03;1.88;;;;;;;;;;4890090;29;20021;-79
2022/04/23 10:30:28;;;;;;;4.95;2.10;;;;;;;;;;4871491;29;20406;-78
2022/04/23 10:32:54;;;;;;;3.65;1.65;;;;;;;;;;4879489;29;20039;-77
2022/04/23 10:35:20;;;;;;;2.38;1.30;;;;;;;;;;4867541;29;20021;-78
2022/04/23 10:37:48;;;;;;;2.35;1.23;;;;;;;;;;4869872;29;20026;-80
2022/04/23 10:40:15;;;;;;;3.58;1.77;;;;;;;;;;4881499;29;20072;-80
2022/04/23 10:43:01;;;;;;;2.78;1.38;;;;;;;;;;4865776;29;20555;-78
2022/04/23 10:45:34;;;;;;;5.85;2.50;;;;;;;;;;4886198;29;20048;-80
2022/04/23 10:48:33;;;;;;;7.88;1.85;;;;;;;;;;4884834;29;20032;-78
2022/04/23 10:51:02;;;;;;;7.72;1.80;;;;;;;;;;4864476;29;20091;-81
2022/04/23 10:53:48;;;;;;;8.32;2.95;;;;;;;;;;4877913;29;20114;-78
2022/04/23 10:56:16;;;;;;;3.50;1.55;;;;;;;;;;4864397;29;20116;-78
2022/04/23 10:58:42;;;;;;;6.82;1.55;;;;;;;;;;4883387;29;20021;-79
2022/04/23 11:01:24;;;;;;;2.60;1.60;;;;;;;;;;4873611;29;20029;-78
2022/04/23 11:03:56;;;;;;;3.88;1.67;;;;;;;;;;4875449;29;20044;-78
2022/04/23 11:12:23;;;;;;;4.23;2.30;;;;;;;;;;4874004;29;20040;-78
2022/04/23 11:14:53;;;;;;;11.05;4.57;;;;;;;;;;4888357;29;20284;-81
2022/04/23 11:17:25;;;;;;;5.93;3.00;;;;;;;;;;4876193;29;20067;-76
2022/04/23 11:19:55;;;;;;;5.95;3.50;;;;;;;;;;4875444;29;20056;-79
2022/04/23 11:22:21;;;;;;;3.35;1.88;;;;;;;;;;4875330;29;20033;-79
2022/04/23 11:24:48;;;;;;;5.18;1.90;;;512.30;1792.00;;;;;;4892504;29;20037;-80
2022/04/23 11:27:24;;;;;;;4.30;2.90;;;512.20;1817.60;;;;;;4872818;29;20029;-80
2022/04/23 11:29:54;;;;;;;6.28;3.40;;;512.60;1843.20;;;;;;4892004;29;20082;-82
2022/04/23 11:32:27;;;;;;;7.35;3.78;;;512.50;1766.40;;;;;;4877081;29;20029;-79
2022/04/23 11:35:00;;;;;;;7.53;4.55;;;512.60;1766.40;;;;;;4911781;29;20368;-79
2022/04/23 11:37:32;;;;;;;8.07;4.35;;;512.70;1740.80;;;;;;4868316;29;20501;-79
2022/04/23 11:40:12;;;;;;;5.07;2.78;;;512.70;1715.20;;;;;;4892856;29;20061;-78
2022/04/23 11:42:39;;;;;;;5.53;2.47;;;537.60;1715.20;;;;;;4870680;29;20064;-79
2022/04/23 11:45:05;;;;;;;4.82;2.70;;;512.30;1740.80;;;;;;4912337;29;20048;-80
2022/04/23 11:47:33;;;;;;;6.45;3.60;;;512.30;1740.80;;;;;;4866391;29;20478;-79
2022/04/23 11:50:15;;;;;;;4.85;2.75;;;512.60;1740.80;;;;;;4878687;29;20029;-79
2022/04/23 11:52:43;;;;;;;2.47;1.15;;;512.50;1664.00;;;;;;4869968;29;20044;-78
2022/04/23 11:55:20;;;;;;;6.80;2.13;;;512.40;1715.20;;;;;;4898058;29;20747;-79
2022/04/23 11:57:54;;;;;;;6.53;3.88;;;537.60;1638.40;;;;;;4878684;29;20492;-79
2022/04/23 12:00:21;;;;;;;9.45;6.13;;;512.90;1689.60;;;;;;4885322;29;20503;-80
2022/04/23 12:02:47;;;;;;;9.13;5.85;;;512.80;1689.60;;;;;;4901949;29;20075;-79
2022/04/23 12:05:20;;;;;;;10.15;7.78;;;512.70;1664.00;;;;;;4875751;29;20047;-81
2022/04/23 12:07:46;;;;;;;;;;;;;;;;;;4867699;29;20396;-79
2022/04/23 12:10:12;;;;;;;17.73;14.38;;;;;;;;;;4877461;29;19915;-79
2022/04/23 12:12:39;;;;;;;12.45;5.10;;;;;;;;;;4870501;29;20029;-79
2022/04/23 12:15:31;;;;;;;6.97;4.82;;;;;;;;;;4884429;29;20048;-78
2022/04/23 12:17:57;;;;;;;7.23;3.10;;;;;;;;;;4855905;29;20060;-79
2022/04/23 12:20:24;;;;;;;5.75;2.47;;;;;;;;;;4893125;29;20044;-80
2022/04/23 12:22:56;;;;;;;5.63;1.90;;;;;;;;;;4880757;29;20122;-80
2022/04/23 12:25:32;;;;;;;7.30;3.57;;;;;;;;;;4876094;29;20069;-79
2022/04/23 12:28:00;;;;;;;7.07;3.08;;;;;;;;;;4894771;29;20032;-78
2022/04/23 12:41:57;;;;;;;8.80;3.30;;;;;;;;;;4881126;29;20064;-79
2022/04/23 12:44:24;;;;;;;4.18;2.63;;;;;;;;;;4876208;29;20504;-77
2022/04/23 12:47:00;;;;;;;2.97;2.05;;;;;;;;;;4871247;29;20021;-80
2022/04/23 12:49:45;;;;;;;7.75;4.00;;;;;;;;;;4876705;29;20033;-79
2022/04/23 12:52:34;;;;;;;2.15;1.48;;;;;;;;;;4861314;29;20116;-81
2022/04/23 12:55:18;;;;;;;2.65;1.48;;;;;;;;;;4887521;29;20123;-79
2022/04/23 12:57:48;;;;;;;5.93;2.13;;;;;;;;;;4865404;29;20026;-79
2022/04/23 13:00:16;;;;;;;5.75;3.88;;;;;;;;;;4895445;29;20181;-79
2022/04/23 13:02:43;;;;;;;4.43;2.05;;;;;;;;;;4888574;29;20398;-78
2022/04/23 13:05:10;;;;;;;4.80;1.27;;;;;;;;;;4863634;29;20048;-77
2022/04/23 13:10:21;;;;;;;3.80;1.60;;;;;;;;;;4867319;29;20513;-78
2022/04/23 13:12:48;;;;;;;2.88;1.42;;;;;;;;;;4873545;29;20030;-77
2022/04/23 13:15:15;;;;;;;2.83;1.50;;;;;;;;;;4888312;29;20111;-78
2022/04/23 13:17:42;;;;;;;5.88;1.92;;;;;;;;;;4880215;29;20017;-76
2022/04/23 13:21:01;;;;;;;5.85;2.50;;;;;;;;;;4880046;29;20032;-79
2022/04/23 13:23:27;;;;;;;6.70;3.03;;;;;;;;;;4895763;29;20067;-81
2022/04/23 13:25:57;;;;;;;3.33;2.05;;;;;;;;;;4896602;29;20040;-82
2022/04/23 13:28:23;;;;;;;3.92;2.10;;;;;;;;;;4889037;29;20120;-82
2022/04/23 13:30:49;;;;;;;5.65;2.08;;;;;;;;;;4871183;29;20030;-79
2022/04/23 13:33:15;;;;;;;3.83;1.70;;;;;;;;;;4874070;29;20039;-79
2022/04/23 13:35:42;;;;;;;3.30;1.80;;;;;;;;;;4864708;29;20036;-78
2022/04/23 13:38:12;;;;;;;6.63;2.40;;;;;;;;;;4879912;29;20021;-78
2022/04/23 13:40:38;;;;;;;7.65;2.15;;;;;;;;;;4875224;29;20045;-77
2022/04/23 13:43:04;;;;;;;3.45;2.35;;;;;;;;;;4891157;29;20029;-76
2022/04/23 13:45:31;;;;;;;4.78;2.45;;;;;;;;;;4875839;29;20037;-79
2022/04/23 13:47:59;;;;;;;5.53;2.58;;;;;;;;;;4874955;29;20017;-76
2022/04/23 13:50:25;;;;;;;4.63;2.28;;;;;;;;;;4876995;29;20025;-78
2022/04/23 13:52:51;;;;;;;4.30;2.40;;;;;;;;;;4877091;29;20074;-79
2022/04/23 13:55:17;;;;;;;3.25;1.60;;;;;;;;;;4890280;29;20021;-77
2022/04/23 13:57:43;;;;;;;5.68;3.63;;;;;;;;;;4878290;29;20021;-79
2022/04/23 14:00:10;;;;;;;4.28;2.15;;;;;;;;;;4878573;29;20025;-77
2022/04/23 14:10:50;;;;;;;9.20;2.58;;;;;;;;;;4868557;29;20407;-78
2022/04/23 14:13:16;;;;;;;5.13;2.85;;;;;;;;;;4871353;29;20421;-77
2022/04/23 14:15:42;;;;;;;4.97;2.97;;;;;;;;;;4862407;29;20022;-77
2022/04/23 14:18:08;;;;;;;4.18;2.08;;;;;;;;;;4874118;29;20029;-78
2022/04/23 14:20:34;;;;;;;3.95;1.92;;;;;;;;;;4865251;29;20025;-77
2022/04/23 14:23:01;;;;;;;3.00;1.60;;;;;;;;;;4867733;29;20040;-80
2022/04/23 14:25:28;;;;;;;4.15;2.10;;;;;;;;;;4870712;29;20064;-79
2022/04/23 14:27:54;;;;;;;4.97;2.92;;;;;;;;;;4891267;29;20465;-79
2022/04/23 14:30:20;;;;;;;5.28;2.60;;;;;;;;;;4874523;29;20026;-77
2022/04/23 14:32:46;;;;;;;5.07;2.05;;;;;;;;;;4870388;29;20025;-76
2022/04/23 14:35:12;;;;;;;6.60;3.33;;;;;;;;;;4879544;29;20029;-78
2022/04/23 14:37:38;;;;;;;4.82;2.58;;;;;;;;;;4875320;29;20389;-77
2022/04/23 14:40:05;;;;;;;5.20;3.70;;;;;;;;;;4879732;29;20064;-79
2022/04/23 14:42:31;;;;;;;7.45;2.42;;;;;;;;;;4880248;29;20107;-77
2022/04/23 14:44:57;;;;;;;5.93;3.85;;;;;;;;;;4879516;29;20040;-77
2022/04/23 14:47:25;;;;;;;7.13;3.08;;;;;;;;;;4879516;29;20032;-78
2022/04/23 14:49:51;;;;;;;7.88;2.05;;;;;;;;;;4877065;29;20025;-76
2022/04/23 14:55:03;;;;;;;10.63;4.32;;;;;;;;;;4878727;29;20113;-77
2022/04/23 14:57:29;;;;;;;3.92;2.53;;;;;;;;;;4874318;29;20022;-78
2022/04/23 14:59:55;;;;;;;5.80;2.40;;;;;;;;;;4877605;29;20025;-79
2022/04/23 15:02:21;;;;;;;5.40;2.35;;;;;;;;;;4874332;29;20042;-78
2022/04/23 15:04:47;;;;;;;6.18;2.67;;;;;;;;;;4884273;29;20057;-79
2022/04/23 15:07:13;;;;;;;3.40;2.00;;;;;;;;;;4880920;29;20021;-78
2022/04/23 15:09:39;;;;;;;4.75;3.45;;;;;;;;;;4878482;29;20025;-77
2022/04/23 15:12:06;;;;;;;3.55;1.92;;;;;;;;;;4878303;29;20036;-77
2022/04/23 15:14:33;;;;;;;3.55;1.92;;;;;;;;;;4874516;29;20022;-76
2022/04/23 15:16:59;;;;;;;5.15;2.38;;;;;;;;;;4870269;29;20018;-80